createdAt,value
2023-06-12T00:00:57.042Z,15.75
2023-06-12T00:03:59.269Z,15.63
2023-06-12T00:07:03.148Z,15.64
2023-06-12T00:10:04.725Z,15.75
2023-06-12T00:13:06.276Z,15.45
2023-06-12T00:16:07.702Z,15.28
2023-06-12T00:19:09.135Z,15.23
2023-06-12T00:22:10.685Z,15.36
2023-06-12T00:25:12.386Z,15.35
2023-06-12T00:28:13.780Z,15.39
2023-06-12T00:31:15.471Z,15.33
2023-06-12T00:34:16.894Z,15.34
2023-06-12T00:37:18.916Z,15.31
2023-06-12T00:40:20.593Z,15.24
2023-06-12T00:43:21.988Z,15.20
2023-06-12T00:46:23.479Z,15.17
2023-06-12T00:49:24.865Z,15.09
2023-06-12T00:52:27.324Z,15.17
2023-06-12T00:55:29.908Z,14.89
2023-06-12T00:58:31.354Z,14.67
2023-06-12T01:01:33.253Z,14.62
2023-06-12T01:04:35.552Z,14.57
2023-06-12T01:07:45.142Z,14.50
2023-06-12T01:10:58.756Z,14.58
2023-06-12T01:14:00.172Z,14.51
2023-06-12T01:17:03.379Z,14.51
2023-06-12T01:20:06.887Z,14.52
2023-06-12T01:23:16.714Z,14.72
2023-06-12T01:26:28.612Z,14.68
2023-06-12T01:29:45.527Z,14.66
2023-06-12T01:32:48.417Z,14.41
2023-06-12T01:35:50.817Z,14.52
2023-06-12T01:38:54.546Z,14.30
2023-06-12T01:41:55.978Z,14.32
2023-06-12T01:44:57.396Z,14.31
2023-06-12T01:47:59.239Z,14.31
2023-06-12T01:51:00.684Z,14.20
2023-06-12T01:54:03.167Z,14.02
2023-06-12T01:57:04.774Z,13.99
2023-06-12T02:00:06.516Z,13.93
2023-06-12T02:03:08.020Z,13.99
2023-06-12T02:06:09.472Z,13.90
2023-06-12T02:09:11.017Z,13.91
2023-06-12T02:12:12.549Z,14.04
2023-06-12T02:15:14.175Z,13.84
2023-06-12T02:18:16.501Z,13.66
2023-06-12T02:21:17.893Z,13.56
2023-06-12T02:24:19.397Z,13.70
2023-06-12T02:27:20.953Z,13.66
2023-06-12T02:30:22.348Z,13.42
2023-06-12T02:33:26.507Z,13.48
2023-06-12T02:36:29.066Z,13.48
2023-06-12T02:39:30.590Z,13.44
2023-06-12T02:42:32.038Z,13.35
2023-06-12T02:45:33.490Z,13.38
2023-06-12T02:48:34.889Z,13.33
2023-06-12T02:51:36.298Z,13.24
2023-06-12T02:54:37.694Z,13.18
2023-06-12T02:57:39.093Z,13.16
2023-06-12T03:00:40.714Z,13.03
2023-06-12T03:03:42.220Z,12.97
2023-06-12T03:06:45.990Z,13.00
2023-06-12T03:09:47.809Z,12.94
2023-06-12T03:12:49.268Z,12.71
2023-06-12T03:15:50.733Z,12.72
2023-06-12T03:18:52.170Z,12.64
2023-06-12T03:21:53.555Z,12.71
2023-06-12T03:24:55.384Z,12.78
2023-06-12T03:27:56.792Z,12.77
2023-06-12T03:30:58.197Z,12.73
2023-06-12T03:33:59.572Z,12.75
2023-06-12T03:37:01.061Z,12.72
2023-06-12T03:40:02.481Z,12.63
2023-06-12T03:43:03.966Z,12.65
2023-06-12T03:46:05.889Z,12.76
2023-06-12T03:49:07.284Z,12.76
2023-06-12T03:52:08.904Z,12.87
2023-06-12T03:55:10.970Z,12.91
2023-06-12T03:58:17.852Z,12.81
2023-06-12T04:01:19.340Z,12.69
2023-06-12T04:04:20.795Z,12.61
2023-06-12T04:07:22.232Z,12.70
2023-06-12T04:10:23.698Z,12.88
2023-06-12T04:13:25.414Z,12.77
2023-06-12T04:16:26.939Z,12.63
2023-06-12T04:19:28.460Z,12.70
2023-06-12T04:22:31.133Z,12.72
2023-06-12T04:25:32.793Z,12.67
2023-06-12T04:28:34.894Z,12.88
2023-06-12T04:31:36.353Z,12.69
2023-06-12T04:34:46.436Z,12.64
2023-06-12T04:37:54.028Z,12.76
2023-06-12T04:40:55.785Z,12.91
2023-06-12T04:44:00.274Z,12.97
2023-06-12T04:47:11.642Z,13.04
2023-06-12T04:50:13.971Z,13.11
2023-06-12T04:53:30.766Z,13.26
2023-06-12T04:56:32.653Z,13.32
2023-06-12T04:59:38.383Z,13.46
2023-06-12T05:02:39.915Z,13.61
2023-06-12T05:05:41.393Z,13.65
2023-06-12T05:08:43.189Z,13.51
2023-06-12T05:11:44.591Z,13.84
2023-06-12T05:14:46.000Z,13.98
2023-06-12T05:17:47.641Z,14.13
2023-06-12T05:20:49.058Z,14.23
2023-06-12T05:23:51.602Z,14.32
2023-06-12T05:26:53.115Z,14.37
2023-06-12T05:29:54.490Z,14.60
2023-06-12T05:32:56.156Z,14.78
2023-06-12T05:35:57.712Z,14.99
2023-06-12T05:38:59.113Z,14.97
2023-06-12T05:42:00.629Z,15.05
2023-06-12T05:45:02.073Z,15.06
2023-06-12T05:48:04.125Z,15.13
2023-06-12T05:51:08.268Z,15.24
2023-06-12T05:54:09.672Z,15.34
2023-06-12T05:57:12.581Z,15.27
2023-06-12T06:00:15.493Z,15.39
2023-06-12T06:03:19.344Z,15.61
2023-06-12T06:06:20.965Z,15.73
2023-06-12T06:09:22.413Z,16.02
2023-06-12T06:12:23.846Z,16.23
2023-06-12T06:15:25.266Z,16.41
2023-06-12T06:18:26.688Z,16.58
2023-06-12T06:21:28.053Z,16.67
2023-06-12T06:24:29.563Z,16.83
2023-06-12T06:27:31.115Z,17.02
2023-06-12T06:30:32.518Z,17.21
2023-06-12T06:33:33.991Z,17.35
2023-06-12T06:36:36.601Z,17.44
2023-06-12T06:39:38.026Z,17.70
2023-06-12T06:42:39.485Z,18.02
2023-06-12T06:45:40.929Z,18.23
2023-06-12T06:48:42.382Z,18.50
2023-06-12T06:51:43.796Z,18.73
2023-06-12T06:54:45.248Z,18.96
2023-06-12T06:57:46.635Z,19.26
2023-06-12T07:00:48.078Z,19.55
2023-06-12T07:03:49.482Z,19.68
2023-06-12T07:06:50.895Z,19.97
2023-06-12T07:09:52.340Z,20.12
2023-06-12T07:12:57.936Z,20.13
2023-06-12T07:16:01.795Z,20.67
2023-06-12T07:19:03.792Z,20.83
2023-06-12T07:22:05.309Z,21.00
2023-06-12T07:25:07.034Z,21.16
2023-06-12T07:28:08.622Z,21.22
2023-06-12T07:31:10.072Z,21.40
2023-06-12T07:34:11.478Z,21.76
2023-06-12T07:37:14.024Z,21.97
2023-06-12T07:40:15.477Z,22.24
2023-06-12T07:43:16.931Z,22.41
2023-06-12T07:46:18.392Z,22.42
2023-06-12T07:49:19.852Z,22.57
2023-06-12T07:52:22.133Z,22.64
2023-06-12T07:55:23.549Z,22.60
2023-06-12T07:58:25.674Z,22.94
2023-06-12T08:01:27.438Z,23.15
2023-06-12T08:04:30.594Z,23.50
2023-06-12T08:07:32.037Z,23.87
2023-06-12T08:10:33.450Z,24.44
2023-06-12T08:13:35.790Z,24.43
2023-06-12T08:16:37.352Z,24.54
2023-06-12T08:19:38.794Z,24.78
2023-06-12T08:22:40.454Z,24.57
2023-06-12T08:25:42.210Z,24.63
2023-06-12T08:28:44.074Z,24.61
2023-06-12T08:31:45.492Z,24.60
2023-06-12T08:34:46.903Z,24.46
2023-06-12T08:37:48.426Z,24.59
2023-06-12T08:40:50.771Z,24.84
2023-06-12T08:43:54.075Z,24.81
2023-06-12T08:46:56.490Z,24.98
2023-06-12T08:49:57.960Z,24.94
2023-06-12T08:52:59.452Z,25.04
2023-06-12T08:56:00.900Z,24.49
2023-06-12T08:59:04.582Z,25.01
2023-06-12T09:02:14.683Z,25.20
2023-06-12T09:05:27.656Z,25.61
2023-06-12T09:08:29.105Z,26.05
2023-06-12T09:11:30.510Z,26.29
2023-06-12T09:14:34.089Z,25.97
2023-06-12T09:17:38.600Z,26.10
2023-06-12T09:20:43.469Z,26.14
2023-06-12T09:23:47.104Z,26.11
2023-06-12T09:26:48.549Z,25.71
2023-06-12T09:29:49.950Z,25.81
2023-06-12T09:32:52.338Z,25.73
2023-06-12T09:35:53.889Z,25.88
2023-06-12T09:38:55.442Z,25.95
2023-06-12T09:41:56.918Z,26.17
2023-06-12T09:44:58.543Z,26.22
2023-06-12T09:47:59.981Z,26.39
2023-06-12T09:51:04.547Z,26.52
2023-06-12T09:54:05.945Z,26.41
2023-06-12T09:57:07.547Z,26.85
2023-06-12T10:00:12.834Z,26.88
2023-06-12T10:03:16.538Z,27.01
2023-06-12T10:06:19.232Z,27.54
2023-06-12T10:09:22.006Z,27.87
2023-06-12T10:12:23.392Z,27.57
2023-06-12T10:15:25.071Z,27.48
2023-06-12T10:18:26.986Z,27.04
2023-06-12T10:21:28.457Z,26.92
2023-06-12T10:24:29.962Z,27.36
2023-06-12T10:27:31.425Z,27.46
2023-06-12T10:30:32.864Z,27.51
2023-06-12T10:33:34.287Z,27.53
2023-06-12T10:36:40.839Z,27.44
2023-06-12T10:39:42.563Z,27.51
2023-06-12T10:42:44.825Z,27.86
2023-06-12T10:45:51.548Z,27.92
2023-06-12T10:48:52.955Z,28.18
2023-06-12T10:51:54.482Z,28.09
2023-06-12T10:55:17.209Z,27.99
2023-06-12T10:58:20.117Z,28.23
2023-06-12T11:01:21.574Z,28.15
2023-06-12T11:04:23.397Z,27.80
2023-06-12T11:07:24.900Z,27.91
2023-06-12T11:10:26.835Z,28.30
2023-06-12T11:13:28.288Z,28.65
2023-06-12T11:16:30.621Z,28.97
2023-06-12T11:19:32.281Z,28.86
2023-06-12T11:22:33.767Z,28.16
2023-06-12T11:25:35.714Z,27.81
2023-06-12T11:28:37.175Z,28.14
2023-06-12T11:31:39.021Z,28.08
2023-06-12T11:34:41.550Z,28.23
2023-06-12T11:40:47.643Z,28.61
2023-06-12T11:43:49.051Z,28.86
2023-06-12T11:46:50.690Z,28.98
2023-06-12T11:49:53.712Z,28.81
2023-06-12T11:52:55.165Z,29.30
2023-06-12T11:59:06.211Z,28.91
2023-06-12T12:02:07.737Z,28.81
2023-06-12T12:05:10.472Z,29.14
2023-06-12T12:08:11.868Z,28.83
2023-06-12T12:11:21.088Z,29.15
2023-06-12T12:14:23.956Z,29.47
2023-06-12T12:17:25.453Z,29.19
2023-06-12T12:20:27.286Z,29.55
2023-06-12T12:23:28.901Z,29.23
2023-06-12T12:26:30.337Z,29.07
2023-06-12T12:29:43.700Z,28.98
2023-06-12T12:32:56.596Z,29.26
2023-06-12T12:36:01.373Z,29.37
2023-06-12T12:39:02.877Z,29.53
2023-06-12T12:42:04.462Z,29.68
2023-06-12T12:45:06.226Z,29.57
2023-06-12T12:48:07.842Z,29.61
2023-06-12T12:51:10.915Z,29.62
2023-06-12T12:54:12.742Z,29.66
2023-06-12T12:57:14.198Z,29.86
2023-06-12T13:00:16.213Z,30.09
2023-06-12T13:03:18.032Z,29.43
2023-06-12T13:06:21.005Z,29.37
2023-06-12T13:09:22.415Z,29.55
2023-06-12T13:12:24.035Z,29.53
2023-06-12T13:15:25.466Z,29.41
2023-06-12T13:18:26.890Z,29.68
2023-06-12T13:21:28.299Z,29.90
2023-06-12T13:24:29.821Z,30.41
2023-06-12T13:27:31.343Z,30.59
2023-06-12T13:30:32.720Z,30.81
2023-06-12T13:33:34.129Z,30.46
2023-06-12T13:36:35.839Z,30.63
2023-06-12T13:39:37.680Z,30.50
2023-06-12T13:42:39.107Z,30.50
2023-06-12T13:45:41.172Z,30.48
2023-06-12T13:48:42.555Z,30.86
2023-06-12T13:51:43.964Z,30.20
2023-06-12T13:54:45.600Z,30.44
2023-06-12T13:57:47.333Z,30.40
2023-06-12T14:00:48.799Z,30.13
2023-06-12T14:03:50.284Z,30.23
2023-06-12T14:06:53.346Z,30.42
2023-06-12T14:09:55.038Z,29.94
2023-06-12T14:12:56.440Z,29.83
2023-06-12T14:15:57.888Z,29.74
2023-06-12T14:18:59.314Z,29.90
2023-06-12T14:22:00.736Z,29.56
2023-06-12T14:25:02.615Z,29.85
2023-06-12T14:28:04.614Z,30.21
2023-06-12T14:31:06.242Z,29.76
2023-06-12T14:34:07.661Z,29.72
2023-06-12T14:37:09.062Z,29.45
2023-06-12T14:40:10.673Z,29.78
2023-06-12T14:43:12.074Z,29.63
2023-06-12T14:46:13.567Z,29.31
2023-06-12T14:49:15.053Z,29.02
2023-06-12T14:52:31.861Z,28.91
2023-06-12T14:55:35.478Z,29.11
2023-06-12T14:58:36.851Z,29.06
2023-06-12T15:01:38.333Z,29.05
2023-06-12T15:04:40.437Z,29.26
2023-06-12T15:07:41.817Z,29.28
2023-06-12T15:10:43.362Z,28.92
2023-06-12T15:13:44.768Z,29.01
2023-06-12T15:16:46.221Z,29.30
2023-06-12T15:19:47.619Z,29.37
2023-06-12T15:22:48.990Z,29.15
2023-06-12T15:25:50.477Z,29.38
2023-06-12T15:28:51.872Z,28.92
2023-06-12T15:31:53.303Z,28.92
2023-06-12T15:34:54.764Z,28.69
2023-06-12T15:37:58.805Z,28.78
2023-06-12T15:41:00.366Z,28.76
2023-06-12T15:44:01.904Z,28.57
2023-06-12T15:47:03.306Z,28.51
2023-06-12T15:50:04.932Z,28.67
2023-06-12T15:53:09.556Z,28.73
2023-06-12T15:56:11.215Z,28.85
2023-06-12T15:59:12.625Z,28.98
2023-06-12T16:02:14.663Z,28.86
2023-06-12T16:05:16.190Z,28.62
2023-06-12T16:08:17.568Z,28.57
2023-06-12T16:11:18.964Z,28.37
2023-06-12T16:14:20.380Z,28.22
2023-06-12T16:17:21.793Z,28.35
2023-06-12T16:20:23.216Z,28.18
2023-06-12T16:23:24.606Z,28.22
2023-06-12T16:26:26.945Z,28.19
2023-06-12T16:29:28.476Z,28.43
2023-06-12T16:32:29.945Z,28.51
2023-06-12T16:35:31.668Z,28.37
2023-06-12T16:38:33.076Z,28.15
2023-06-12T16:41:35.239Z,28.02
2023-06-12T16:44:36.696Z,27.61
2023-06-12T16:47:38.795Z,27.50
2023-06-12T16:50:40.228Z,27.41
2023-06-12T16:53:42.675Z,27.44
2023-06-12T16:56:46.827Z,27.37
2023-06-12T16:59:48.668Z,27.21
2023-06-12T17:02:50.272Z,27.15
2023-06-12T17:05:51.820Z,27.16
2023-06-12T17:08:53.241Z,27.16
2023-06-12T17:11:57.655Z,27.20
2023-06-12T17:14:59.114Z,27.06
2023-06-12T17:18:00.732Z,26.99
2023-06-12T17:21:02.268Z,26.97
2023-06-12T17:24:03.703Z,26.95
2023-06-12T17:27:05.114Z,26.88
2023-06-12T17:30:06.909Z,26.45
2023-06-12T17:33:08.517Z,26.75
2023-06-12T17:36:09.978Z,26.65
2023-06-12T17:39:11.383Z,26.75
2023-06-12T17:42:12.820Z,26.55
2023-06-12T17:45:14.221Z,26.59
2023-06-12T17:48:16.021Z,26.57
2023-06-12T17:51:17.626Z,26.61
2023-06-12T17:54:19.095Z,26.48
2023-06-12T17:57:20.551Z,26.25
2023-06-12T18:00:24.171Z,26.17
2023-06-12T18:03:25.854Z,25.89
2023-06-12T18:06:27.370Z,25.79
2023-06-12T18:09:28.798Z,25.67
2023-06-12T18:12:30.205Z,25.55
2023-06-12T18:15:31.572Z,25.63
2023-06-12T18:18:33.282Z,25.79
2023-06-12T18:21:35.090Z,25.81
2023-06-12T18:24:37.199Z,25.62
2023-06-12T18:27:38.842Z,25.21
2023-06-12T18:30:40.235Z,25.11
2023-06-12T18:33:41.806Z,24.99
2023-06-12T18:36:43.219Z,25.11
2023-06-12T18:39:44.783Z,24.93
2023-06-12T18:42:46.306Z,24.86
2023-06-12T18:45:48.116Z,24.84
2023-06-12T18:48:50.520Z,24.53
2023-06-12T18:51:51.955Z,24.38
2023-06-12T18:54:56.093Z,24.22
2023-06-12T18:57:57.816Z,24.12
2023-06-12T19:00:59.224Z,24.10
2023-06-12T19:04:00.890Z,24.22
2023-06-12T19:07:06.656Z,23.99
2023-06-12T19:10:08.207Z,23.83
2023-06-12T19:13:09.729Z,23.77
2023-06-12T19:16:11.133Z,23.56
2023-06-12T19:19:12.733Z,23.36
2023-06-12T19:22:14.138Z,23.01
2023-06-12T19:25:15.779Z,22.78
2023-06-12T19:28:17.917Z,22.64
2023-06-12T19:31:19.588Z,22.58
2023-06-12T19:34:21.110Z,22.25
2023-06-12T19:37:22.530Z,22.05
2023-06-12T19:40:23.961Z,21.91
2023-06-12T19:43:25.407Z,21.76
2023-06-12T19:46:27.670Z,21.54
2023-06-12T19:49:29.170Z,21.49
2023-06-12T19:52:30.612Z,21.37
2023-06-12T19:55:32.380Z,21.26
2023-06-12T19:58:33.818Z,21.31
2023-06-12T20:01:35.240Z,21.11
2023-06-12T20:04:37.255Z,20.76
2023-06-12T20:07:38.672Z,20.52
2023-06-12T20:10:40.111Z,20.29
2023-06-12T20:13:42.189Z,19.94
2023-06-12T20:16:43.621Z,19.83
2023-06-12T20:19:45.006Z,19.69
2023-06-12T20:22:47.046Z,19.68
2023-06-12T20:25:48.547Z,19.70
2023-06-12T20:28:50.044Z,19.61
2023-06-12T20:31:51.498Z,19.54
2023-06-12T20:34:52.989Z,19.31
2023-06-12T20:37:55.653Z,19.40
2023-06-12T20:40:57.162Z,19.18
2023-06-12T20:43:58.514Z,19.14
2023-06-12T20:47:00.735Z,19.11
2023-06-12T20:50:02.258Z,19.01
2023-06-12T20:53:03.686Z,19.09
2023-06-12T20:56:05.285Z,18.74
2023-06-12T20:59:06.696Z,18.32
2023-06-12T21:02:09.230Z,18.28
2023-06-12T21:05:10.773Z,18.30
2023-06-12T21:08:13.942Z,18.14
2023-06-12T21:11:31.418Z,18.04
2023-06-12T21:14:33.173Z,17.94
2023-06-12T21:17:34.615Z,18.00
2023-06-12T21:20:36.140Z,17.86
2023-06-12T21:23:37.536Z,17.91
2023-06-12T21:26:38.938Z,17.76
2023-06-12T21:29:40.504Z,17.63
2023-06-12T21:32:41.991Z,17.64
2023-06-12T21:35:45.025Z,17.75
2023-06-12T21:38:46.428Z,17.59
2023-06-12T21:41:47.901Z,17.55
2023-06-12T21:44:49.410Z,17.38
2023-06-12T21:47:51.710Z,17.26
2023-06-12T21:50:53.168Z,17.18
2023-06-12T21:53:54.617Z,17.03
2023-06-12T21:56:56.017Z,17.09
2023-06-12T21:59:57.415Z,16.93
2023-06-12T22:02:58.920Z,16.90
2023-06-12T22:06:00.391Z,16.72
2023-06-12T22:09:01.789Z,16.67
2023-06-12T22:12:03.209Z,16.54
2023-06-12T22:15:05.140Z,16.49
2023-06-12T22:18:06.797Z,16.52
2023-06-12T22:21:08.265Z,16.48
2023-06-12T22:24:09.722Z,16.43
2023-06-12T22:27:11.685Z,16.31
2023-06-12T22:30:13.165Z,16.23
2023-06-12T22:33:14.757Z,16.19
2023-06-12T22:36:16.199Z,16.12
2023-06-12T22:39:17.657Z,16.07
2023-06-12T22:42:19.053Z,15.97
2023-06-12T22:45:20.450Z,15.90
2023-06-12T22:48:34.693Z,15.72
2023-06-12T22:51:36.358Z,15.66
2023-06-12T22:54:38.933Z,15.79
2023-06-12T22:57:40.330Z,15.75
2023-06-12T23:00:41.709Z,15.70
2023-06-12T23:03:43.135Z,15.63
2023-06-12T23:06:48.088Z,15.70
2023-06-12T23:09:51.329Z,15.68
2023-06-12T23:12:53.136Z,15.66
2023-06-12T23:15:54.641Z,15.65
2023-06-12T23:18:56.123Z,15.66
2023-06-12T23:21:57.530Z,15.67
2023-06-12T23:24:59.235Z,15.75
2023-06-12T23:28:01.893Z,15.74
2023-06-12T23:31:03.951Z,15.79
2023-06-12T23:34:05.938Z,15.77
2023-06-12T23:37:07.522Z,15.69
2023-06-12T23:40:09.091Z,15.81
2023-06-12T23:43:11.549Z,15.79
2023-06-12T23:46:13.688Z,15.65
2023-06-12T23:49:15.072Z,15.71
2023-06-12T23:52:16.588Z,15.88
2023-06-12T23:55:17.986Z,15.74
2023-06-12T23:58:19.394Z,16.00
